Latest Weather Observations for Cowra

IDN60801

Issued at 3:04 pm EDT Tuesday 23 December 2014 (issued every 30 minutes, with the page automatically refreshed every 10 minutes)

About weather observations | Map of weather stations | Latest weather observations for NSW | Other Formats
Station Details ID: 065111 Name: COWRA AIRPORT AWS Lat: -33.84 Lon: 148.65 Height: 296.5 m
Data from the previous 72 hours. | See also: Recent months at Cowra
Date/Time
EDT
Temp
°C
App
Temp
°C
Dew
Point
Rel
Hum
%
Delta-T
°C
Wind Press
QNH
hPa
Press
MSL
hPa
Rain
since 9 am
mm
Dir
 
Spd
km/h
Gust
km/h
Spd
kts
Gust
kts
23/03:00pm 27.4 26.9 17.0 53 6.6 N 15 26 8 14 1011.4 - 1.4
23/02:30pm 25.6 25.5 17.8 62 5.0 N 15 20 8 11 1011.9 - 1.2
23/02:00pm 25.0 23.4 18.4 66 4.2 N 24 30 13 16 1012.5 - 1.2
23/01:30pm 23.8 22.4 18.0 70 3.7 N 22 32 12 17 1013.2 - 1.2
23/01:00pm 22.5 21.0 17.8 75 3.0 N 22 32 12 17 1013.8 - 1.2
23/12:30pm 20.9 18.8 19.0 89 1.2 NNE 28 39 15 21 1013.4 - 1.2
23/12:00pm 19.7 16.2 17.8 89 1.2 NNW 33 44 18 24 1013.6 1012.4 0.6
23/11:41am 22.5 19.7 18.3 77 2.7 NW 30 52 16 28 1013.7 - 0.0
23/11:30am 24.1 20.0 17.4 66 4.2 NW 35 50 19 27 1013.7 - 0.0
23/11:23am 25.6 22.2 16.7 58 5.6 NNW 30 50 16 27 1013.5 - 0.0
23/11:00am 27.0 25.3 17.2 55 6.2 NW 22 33 12 18 1013.0 - 0.0
23/10:30am 27.4 26.9 17.8 55 6.1 NNW 17 22 9 12 1013.3 - 0.0
23/10:00am 26.0 23.4 16.8 57 5.8 N 26 32 14 17 1013.8 - 0.0
23/09:30am 25.3 25.3 18.0 64 4.7 NNW 15 22 8 12 1014.1 - 0.0
23/09:00am 24.3 24.3 17.3 65 4.4 NNW 13 19 7 10 1014.1 1013.1 1.4
23/08:30am 24.0 23.4 17.5 67 4.1 N 17 20 9 11 1014.1 - 1.4
23/08:00am 22.7 24.1 17.4 72 3.3 N 6 9 3 5 1013.6 - 1.4
23/07:30am 21.4 23.7 16.8 75 2.8 CALM 0 0 0 0 1013.4 - 1.4
23/07:00am 20.2 21.8 17.8 86 1.5 N 6 7 3 4 1013.1 - 1.4
23/06:30am 18.6 21.0 17.1 91 0.9 CALM 0 0 0 0 1013.0 - 1.4
23/06:00am 19.0 21.4 17.0 88 1.2 CALM 0 0 0 0 1012.6 1011.5 1.4
23/05:30am 19.2 21.7 17.2 88 1.2 CALM 0 0 0 0 1012.3 - 1.4
23/05:00am 19.0 21.4 17.0 88 1.2 CALM 0 0 0 0 1012.3 - 1.4
23/04:30am 19.6 20.8 16.8 84 1.7 S 6 9 3 5 1012.3 - 1.4
23/04:00am 19.4 21.5 16.2 82 1.9 CALM 0 0 0 0 1012.3 - 1.4
23/03:30am 19.9 22.1 16.5 81 2.1 CALM 0 0 0 0 1012.8 - 1.4
23/03:00am 20.3 21.5 16.9 81 2.1 S 6 9 3 5 1013.2 1012.1 1.4
23/02:30am 20.4 21.1 17.0 81 2.1 SW 9 11 5 6 1013.6 - 1.4
23/02:00am 20.9 21.5 16.7 77 2.6 SSW 9 13 5 7 1013.8 - 1.4
23/01:30am 21.6 21.1 15.9 70 3.5 NE 13 19 7 10 1013.7 - 1.4
23/01:00am 21.0 21.4 16.2 74 2.9 N 9 13 5 7 1014.5 - 1.2
23/12:30am 21.7 20.0 15.8 69 3.6 N 19 30 10 16 1014.4 - 1.2
23/12:00am 22.7 19.1 15.3 63 4.5 N 28 44 15 24 1014.6 1013.6 1.2
 
Date/Time
EDT
Temp
°C
App
Temp
°C
Dew
Point
Rel
Hum
%
Delta-T
°C
Wind Press
QNH
hPa
Press
MSL
hPa
Rain
since 9 am
mm
Dir
 
Spd
km/h
Gust
km/h
Spd
kts
Gust
kts
22/11:47pm 23.3 18.9 15.1 60 5.0 N 32 50 17 27 1014.6 - 1.2
22/11:41pm 23.8 19.3 15.0 57 5.3 N 32 41 17 22 1014.5 - 1.2
22/11:30pm 23.3 23.0 15.4 61 4.8 N 11 20 6 11 1014.3 - 1.2
22/11:00pm 23.7 23.4 15.5 60 5.0 NNW 11 24 6 13 1013.8 - 1.2
22/10:30pm 23.8 21.7 16.1 62 4.7 NE 22 35 12 19 1013.0 - 1.2
22/10:00pm 22.1 23.1 17.7 76 2.8 ESE 9 11 5 6 1013.4 - 1.2
22/09:30pm 23.8 20.7 16.6 64 4.5 N 28 39 15 21 1014.4 - 1.0
22/09:00pm 25.2 21.2 14.0 49 6.7 NE 28 50 15 27 1012.9 1011.6 0.2
22/08:30pm 26.6 21.8 13.0 43 8.1 NE 30 48 16 26 1011.6 - 0.0
22/08:00pm 26.9 21.7 13.3 43 8.1 NE 33 56 18 30 1011.4 - 0.0
22/07:55pm 27.0 21.9 13.0 42 8.3 NE 32 56 17 30 1011.3 - 0.0
22/07:30pm 27.1 22.5 13.4 42 8.2 NE 30 41 16 22 1011.3 - 0.0
22/07:00pm 27.9 23.8 12.7 39 9.0 ENE 26 44 14 24 1010.6 - 0.0
22/06:50pm 28.1 23.3 12.8 38 9.1 NE 30 48 16 26 1010.7 - 0.0
22/06:30pm 28.4 23.8 12.3 37 9.5 NE 28 43 15 23 1010.8 - 0.0
22/06:10pm 28.7 23.2 11.7 35 9.9 NE 32 50 17 27 1010.5 - 0.0
22/06:00pm 29.4 23.7 11.9 34 10.3 NE 33 50 18 27 1010.5 1009.4 0.0
22/05:52pm 29.8 24.4 12.3 34 10.4 ENE 32 50 17 27 1010.5 - 0.0
22/05:30pm 30.5 26.2 11.9 31 11.0 ENE 26 37 14 20 1010.3 - 0.0
22/05:00pm 31.1 27.8 11.0 29 11.7 ENE 19 28 10 15 1010.2 - 0.0
22/04:30pm 32.0 28.6 10.7 27 12.4 ENE 19 26 10 14 1010.5 - 0.0
22/04:00pm 32.6 28.7 9.4 24 13.3 NE 20 32 11 17 1010.7 - 0.0
22/03:30pm 32.4 28.6 9.9 25 13.0 NNE 20 28 11 15 1010.8 - 0.0
22/03:00pm 33.0 28.6 10.4 25 13.2 NNE 24 35 13 19 1011.0 1010.0 0.0
22/02:30pm 34.5 30.4 11.6 25 13.7 NNE 24 37 13 20 1011.5 - 0.0
22/02:00pm 35.2 30.0 8.9 20 15.2 NNW 26 35 14 19 1011.9 - 0.0
22/01:30pm 33.9 29.9 10.5 24 13.7 N 22 32 12 17 1012.3 - 0.0
22/01:00pm 35.3 31.1 12.3 25 13.9 NW 26 33 14 18 1013.0 - 0.0
22/12:30pm 34.6 30.6 12.9 27 13.2 NW 26 35 14 19 1013.5 - 0.0
22/12:00pm 33.6 30.4 13.1 29 12.5 NW 22 32 12 17 1014.2 1013.1 0.0
22/11:30am 33.8 30.4 13.8 30 12.3 NNW 24 35 13 19 1014.4 - 0.0
22/11:00am 31.4 27.8 13.2 33 11.0 NNW 24 37 13 20 1014.7 - 0.0
22/10:30am 31.2 28.3 13.9 35 10.6 N 22 32 12 17 1014.9 - 0.0
22/10:00am 31.2 27.3 14.4 36 10.3 N 28 37 15 20 1015.1 - 0.0
22/09:30am 29.5 25.5 14.1 39 9.4 N 28 35 15 19 1015.2 - 0.0
22/09:00am 28.8 24.7 13.9 40 9.0 N 28 39 15 21 1015.2 1014.3 0.0
22/08:57am 28.8 24.8 14.2 40 8.9 N 28 39 15 21 1015.3 - 0.0
22/08:30am 26.2 25.2 13.3 45 7.7 NNW 11 17 6 9 1015.7 - 0.0
22/08:00am 24.6 24.8 11.9 45 7.3 NNE 2 7 1 4 1015.5 - 0.0
22/07:30am 22.8 24.1 14.1 58 5.2 CALM 0 0 0 0 1015.1 - 0.0
22/07:00am 19.1 19.9 13.7 71 3.1 NW 2 7 1 4 1014.8 - 0.0
22/06:30am 17.5 18.1 12.0 70 3.1 CALM 0 0 0 0 1014.3 - 0.0
22/06:00am 17.2 16.8 12.3 73 2.7 NNW 6 7 3 4 1014.1 1013.1 0.0
22/05:30am 19.5 18.4 12.0 62 4.2 ENE 9 11 5 6 1013.7 - 0.0
22/05:00am 21.5 20.6 13.7 61 4.6 E 11 15 6 8 1013.2 - 0.0
22/04:30am 22.1 21.3 14.0 60 4.8 E 11 15 6 8 1013.1 - 0.0
22/04:00am 21.2 21.3 12.6 58 4.9 SE 4 7 2 4 1013.1 - 0.0
22/03:30am 22.5 22.2 13.3 56 5.4 E 7 11 4 6 1013.2 - 0.0
22/03:00am 23.0 22.9 14.0 57 5.3 E 7 13 4 7 1013.2 1012.2 0.0
22/02:30am 20.7 20.7 11.3 55 5.3 S 2 6 1 3 1013.6 - 0.0
22/02:00am 23.0 22.4 12.3 51 6.2 S 7 9 4 5 1013.6 - 0.0
22/01:30am 21.8 20.6 9.7 46 6.6 ENE 6 13 3 7 1013.7 - 0.0
22/01:00am 24.2 23.2 12.2 47 6.9 E 9 17 5 9 1013.8 - 0.0
22/12:30am 23.3 21.9 9.0 40 7.8 E 6 11 3 6 1013.9 - 0.0
22/12:00am 22.1 19.7 8.6 42 7.2 NE 11 17 6 9 1013.9 1012.9 0.0
 
Date/Time
EDT
Temp
°C
App
Temp
°C
Dew
Point
Rel
Hum
%
Delta-T
°C
Wind Press
QNH
hPa
Press
MSL
hPa
Rain
since 9 am
mm
Dir
 
Spd
km/h
Gust
km/h
Spd
kts
Gust
kts
21/11:30pm 20.2 19.6 7.2 43 6.7 CALM 0 0 0 0 1013.5 - 0.0
21/11:00pm 22.9 22.2 7.0 36 8.3 CALM 0 0 0 0 1013.3 - 0.0
21/10:30pm 23.5 22.6 7.6 36 8.5 NE 2 7 1 4 1013.2 - 0.0
21/10:00pm 26.5 24.5 7.0 29 10.4 ESE 7 9 4 5 1013.1 - 0.0
21/09:30pm 25.7 23.5 7.8 32 9.7 SSW 9 13 5 7 1013.0 - 0.0
21/09:00pm 26.2 25.6 7.3 30 10.2 CALM 0 0 0 0 1012.6 1011.5 0.0
21/08:30pm 26.2 24.0 6.3 28 10.5 NNE 7 11 4 6 1012.6 - 0.0
21/08:00pm 30.6 28.7 6.5 22 13.1 E 6 7 3 4 1012.2 - 0.0
21/07:30pm 31.5 29.4 5.8 20 13.8 ENE 6 7 3 4 1012.2 - 0.0
21/07:00pm 31.1 29.9 4.8 19 13.9 CALM 0 0 0 0 1012.1 - 0.0
21/06:30pm 32.4 30.1 5.8 19 14.4 NE 7 11 4 6 1011.8 - 0.0
21/06:00pm 32.3 29.7 4.2 17 14.8 NNE 7 17 4 9 1011.7 1010.7 0.0
21/05:30pm 33.2 30.0 4.9 17 15.2 WNW 11 19 6 10 1011.8 - 0.0
21/05:00pm 33.4 29.7 4.2 16 15.5 NNE 13 22 7 12 1012.1 - 0.0
21/04:30pm 34.1 31.4 5.6 17 15.5 W 9 24 5 13 1012.5 - 0.0
21/04:00pm 33.6 31.2 5.2 17 15.3 NNW 7 15 4 8 1013.0 - 0.0
21/03:30pm 33.2 29.0 5.7 18 14.9 NW 17 24 9 13 1013.3 - 0.0
21/03:00pm 31.3 27.7 4.9 19 14.0 NNE 13 35 7 19 1013.7 1012.6 0.0
21/02:30pm 32.3 28.5 5.7 19 14.4 NNW 15 26 8 14 1013.9 - 0.0
21/02:00pm 31.9 29.3 6.2 20 14.0 N 9 17 5 9 1014.4 - 0.0
21/01:30pm 31.4 27.0 6.5 21 13.6 N 19 30 10 16 1014.9 - 0.0
21/01:00pm 31.8 28.0 7.5 22 13.5 N 17 26 9 14 1015.3 - 0.0
21/12:30pm 30.5 27.7 7.0 23 12.8 N 11 20 6 11 1015.7 - 0.0
21/12:00pm 29.7 25.8 7.0 24 12.3 NNW 17 26 9 14 1016.2 1015.1 0.0
21/11:30am 29.3 25.8 8.9 28 11.4 NNW 17 28 9 15 1016.5 - 0.0
21/11:00am 28.6 25.6 9.3 30 10.9 NW 15 28 8 15 1016.9 - 0.0
21/10:30am 27.1 24.4 10.3 35 9.5 WNW 15 28 8 15 1016.7 - 0.0
21/10:00am 26.0 23.4 9.4 35 9.2 N 13 17 7 9 1016.6 - 0.0
21/09:30am 25.5 23.6 8.9 35 9.1 N 9 15 5 8 1016.8 - 0.0
21/09:00am 24.2 22.1 9.8 40 8.0 NE 11 17 6 9 1016.9 1015.9 0.0
21/08:30am 22.8 20.5 10.3 45 6.9 ENE 13 19 7 10 1017.0 - 0.0
21/08:00am 21.5 19.7 10.9 51 5.9 E 11 13 6 7 1016.9 - 0.0
21/07:30am 19.6 19.7 11.6 60 4.5 SSE 2 7 1 4 1016.7 - 0.0
21/07:00am 16.3 16.5 10.4 68 3.2 CALM 0 0 0 0 1016.5 - 0.0
21/06:30am 14.4 14.3 9.4 72 2.6 CALM 0 0 0 0 1016.2 - 0.0
21/06:00am 13.4 12.0 8.7 73 2.4 S 6 6 3 3 1016.0 1014.9 0.0
21/05:30am 13.5 11.8 8.4 71 2.6 S 7 9 4 5 1015.7 - 0.0
21/05:00am 16.4 15.0 9.6 64 3.6 ESE 7 11 4 6 1015.4 - 0.0
21/04:30am 16.5 14.7 9.4 63 3.7 ESE 9 11 5 6 1015.3 - 0.0
21/04:00am 18.1 17.2 11.2 64 3.8 E 7 9 4 5 1015.2 - 0.0
21/03:30am 18.0 16.6 10.9 63 3.9 NE 9 11 5 6 1015.2 - 0.0
21/03:00am 19.0 17.0 11.6 62 4.1 NE 13 17 7 9 1015.0 1014.0 0.0
21/02:30am 19.2 17.6 11.5 61 4.3 NE 11 15 6 8 1015.2 - 0.0
21/02:00am 19.3 17.6 11.3 60 4.4 NE 11 15 6 8 1015.3 - 0.0
21/01:30am 17.6 16.4 9.5 59 4.3 S 6 13 3 7 1015.5 - 0.0
21/01:00am 19.1 17.8 9.3 53 5.2 SSE 6 11 3 6 1015.4 - 0.0
21/12:30am 21.5 20.2 10.0 48 6.3 ESE 7 15 4 8 1015.4 - 0.0
21/12:00am 20.0 17.6 8.7 48 6.0 NNE 11 17 6 9 1015.5 1014.5 0.0
 
Date/Time
EDT
Temp
°C
App
Temp
°C
Dew
Point
Rel
Hum
%
Delta-T
°C
Wind Press
QNH
hPa
Press
MSL
hPa
Rain
since 9 am
mm
Dir
 
Spd
km/h
Gust
km/h
Spd
kts
Gust
kts
20/11:30pm 20.8 18.1 5.6 37 7.7 ENE 9 15 5 8 1015.6 - 0.0
20/11:00pm 18.4 16.6 5.6 43 6.3 SE 4 13 2 7 1015.2 - 0.0
20/10:55pm 18.8 17.7 4.9 40 6.8 CALM 0 6 0 3 1015.1 - 0.0
20/10:30pm 24.0 21.3 5.8 31 9.4 SE 9 15 5 8 1015.0 - 0.0
20/10:00pm 20.7 18.4 4.7 35 7.9 S 6 11 3 6 1014.8 - 0.0
20/09:30pm 24.4 21.9 4.7 28 10.0 ENE 7 9 4 5 1014.4 - 0.0
20/09:00pm 25.2 22.8 4.3 26 10.6 E 6 7 3 4 1014.2 1013.2 0.0
20/08:30pm 27.2 25.1 3.7 22 11.9 ESE 4 7 2 4 1014.0 - 0.0
20/08:00pm 28.1 25.3 2.3 19 12.8 SW 6 9 3 5 1013.7 - 0.0
20/07:30pm 29.5 26.6 2.7 18 13.5 SSW 7 11 4 6 1013.5 - 0.0
20/07:00pm 29.7 27.0 2.9 18 13.6 S 6 13 3 7 1013.2 - 0.0
20/06:30pm 29.9 26.2 2.2 17 13.9 SSW 11 17 6 9 1012.9 - 0.0
20/06:00pm 29.9 26.9 2.2 17 13.9 S 7 17 4 9 1012.7 1011.6 0.0
20/05:30pm 29.6 24.7 2.0 17 13.8 S 17 28 9 15 1012.7 - 0.0
20/05:00pm 29.6 26.0 2.8 18 13.6 SSE 11 19 6 10 1012.8 - 0.0
20/04:30pm 29.7 24.9 4.4 20 13.2 WSW 19 24 10 13 1013.0 - 0.0
20/04:00pm 29.5 26.8 5.6 22 12.7 WNW 9 17 5 9 1013.3 - 0.0
20/03:30pm 28.6 25.6 4.2 21 12.6 NNE 9 20 5 11 1013.9 - 0.0

Other Formats:

Comma delimited format used in spreadsheet applications
http://www.bom.gov.au/fwo/IDN60801/IDN60801.95721.axf

JavaScript Object Notation format (JSON) in row-major order
http://www.bom.gov.au/fwo/IDN60801/IDN60801.95721.json